sensor_id;sensor_type;location;lat;lon;timestamp;P1;durP1;ratioP1;P2;durP2;ratioP2
22435;SDS011;11385;50.822;4.324;2022-11-03T00:00:27;12.10;;;2.80;;
22435;SDS011;11385;50.822;4.324;2022-11-03T00:02:54;11.88;;;2.58;;
22435;SDS011;11385;50.822;4.324;2022-11-03T00:05:21;16.82;;;3.12;;
22435;SDS011;11385;50.822;4.324;2022-11-03T00:07:53;12.88;;;2.35;;
22435;SDS011;11385;50.822;4.324;2022-11-03T00:10:20;14.83;;;2.30;;
22435;SDS011;11385;50.822;4.324;2022-11-03T00:12:46;10.93;;;2.37;;
22435;SDS011;11385;50.822;4.324;2022-11-03T00:15:13;13.15;;;2.20;;
22435;SDS011;11385;50.822;4.324;2022-11-03T00:17:39;12.73;;;2.25;;
22435;SDS011;11385;50.822;4.324;2022-11-03T00:20:06;8.90;;;2.27;;
22435;SDS011;11385;50.822;4.324;2022-11-03T00:22:34;12.78;;;2.65;;
22435;SDS011;11385;50.822;4.324;2022-11-03T00:25:01;13.45;;;2.70;;
22435;SDS011;11385;50.822;4.324;2022-11-03T00:27:27;11.63;;;2.98;;
22435;SDS011;11385;50.822;4.324;2022-11-03T00:29:54;12.20;;;2.00;;
22435;SDS011;11385;50.822;4.324;2022-11-03T00:32:21;11.83;;;3.00;;
22435;SDS011;11385;50.822;4.324;2022-11-03T00:34:47;13.35;;;2.30;;
22435;SDS011;11385;50.822;4.324;2022-11-03T00:37:14;10.55;;;2.75;;
22435;SDS011;11385;50.822;4.324;2022-11-03T00:39:41;15.45;;;3.10;;
22435;SDS011;11385;50.822;4.324;2022-11-03T00:42:07;9.70;;;2.85;;
22435;SDS011;11385;50.822;4.324;2022-11-03T00:44:34;12.75;;;2.58;;
22435;SDS011;11385;50.822;4.324;2022-11-03T00:47:00;8.45;;;2.30;;
22435;SDS011;11385;50.822;4.324;2022-11-03T00:49:27;12.55;;;2.45;;
22435;SDS011;11385;50.822;4.324;2022-11-03T00:51:54;10.78;;;2.12;;
22435;SDS011;11385;50.822;4.324;2022-11-03T00:54:20;11.80;;;2.45;;
22435;SDS011;11385;50.822;4.324;2022-11-03T00:56:47;13.22;;;2.30;;
22435;SDS011;11385;50.822;4.324;2022-11-03T00:59:13;15.32;;;2.55;;
22435;SDS011;11385;50.822;4.324;2022-11-03T01:01:41;11.83;;;2.27;;
22435;SDS011;11385;50.822;4.324;2022-11-03T01:04:09;11.28;;;2.70;;
22435;SDS011;11385;50.822;4.324;2022-11-03T01:06:43;12.18;;;2.80;;
22435;SDS011;11385;50.822;4.324;2022-11-03T01:09:17;13.68;;;2.60;;
22435;SDS011;11385;50.822;4.324;2022-11-03T01:11:57;11.90;;;2.98;;
22435;SDS011;11385;50.822;4.324;2022-11-03T01:14:30;12.65;;;2.15;;
22435;SDS011;11385;50.822;4.324;2022-11-03T01:16:58;11.00;;;1.90;;
22435;SDS011;11385;50.822;4.324;2022-11-03T01:19:24;12.68;;;2.70;;
22435;SDS011;11385;50.822;4.324;2022-11-03T01:21:52;9.53;;;2.70;;
22435;SDS011;11385;50.822;4.324;2022-11-03T01:24:19;12.03;;;3.10;;
22435;SDS011;11385;50.822;4.324;2022-11-03T01:26:46;10.32;;;2.30;;
22435;SDS011;11385;50.822;4.324;2022-11-03T01:29:13;9.75;;;2.67;;
22435;SDS011;11385;50.822;4.324;2022-11-03T01:31:40;10.72;;;2.10;;
22435;SDS011;11385;50.822;4.324;2022-11-03T01:34:08;13.90;;;2.45;;
22435;SDS011;11385;50.822;4.324;2022-11-03T01:36:43;18.82;;;3.30;;
22435;SDS011;11385;50.822;4.324;2022-11-03T01:39:11;16.23;;;3.00;;
22435;SDS011;11385;50.822;4.324;2022-11-03T01:41:41;11.85;;;2.60;;
22435;SDS011;11385;50.822;4.324;2022-11-03T01:44:25;12.18;;;2.90;;
22435;SDS011;11385;50.822;4.324;2022-11-03T01:47:02;13.55;;;2.95;;
22435;SDS011;11385;50.822;4.324;2022-11-03T01:49:41;11.40;;;2.67;;
22435;SDS011;11385;50.822;4.324;2022-11-03T01:52:12;10.30;;;2.20;;
22435;SDS011;11385;50.822;4.324;2022-11-03T01:54:41;10.70;;;2.35;;
22435;SDS011;11385;50.822;4.324;2022-11-03T01:57:12;12.40;;;2.35;;
22435;SDS011;11385;50.822;4.324;2022-11-03T01:59:41;12.20;;;2.75;;
22435;SDS011;11385;50.822;4.324;2022-11-03T02:02:10;9.68;;;1.92;;
22435;SDS011;11385;50.822;4.324;2022-11-03T02:07:34;10.70;;;2.33;;
22435;SDS011;11385;50.822;4.324;2022-11-03T02:10:04;9.68;;;2.52;;
22435;SDS011;11385;50.822;4.324;2022-11-03T02:12:32;10.98;;;1.90;;
22435;SDS011;11385;50.822;4.324;2022-11-03T02:15:02;11.10;;;2.50;;
22435;SDS011;11385;50.822;4.324;2022-11-03T02:17:34;11.48;;;2.15;;
22435;SDS011;11385;50.822;4.324;2022-11-03T02:20:04;12.28;;;2.55;;
22435;SDS011;11385;50.822;4.324;2022-11-03T02:28:00;11.55;;;2.27;;
22435;SDS011;11385;50.822;4.324;2022-11-03T02:30:33;11.18;;;2.47;;
22435;SDS011;11385;50.822;4.324;2022-11-03T02:33:05;9.95;;;2.58;;
22435;SDS011;11385;50.822;4.324;2022-11-03T02:35:47;8.70;;;1.90;;
22435;SDS011;11385;50.822;4.324;2022-11-03T02:38:19;16.02;;;2.80;;
22435;SDS011;11385;50.822;4.324;2022-11-03T02:40:51;9.38;;;2.12;;
22435;SDS011;11385;50.822;4.324;2022-11-03T02:43:20;6.50;;;2.23;;
22435;SDS011;11385;50.822;4.324;2022-11-03T02:45:50;10.90;;;2.35;;
22435;SDS011;11385;50.822;4.324;2022-11-03T02:48:19;10.72;;;3.20;;
22435;SDS011;11385;50.822;4.324;2022-11-03T02:50:46;12.88;;;3.02;;
22435;SDS011;11385;50.822;4.324;2022-11-03T02:53:14;11.20;;;2.60;;
22435;SDS011;11385;50.822;4.324;2022-11-03T02:55:52;9.28;;;2.40;;
22435;SDS011;11385;50.822;4.324;2022-11-03T02:58:30;10.98;;;2.70;;
22435;SDS011;11385;50.822;4.324;2022-11-03T03:03:43;10.72;;;3.00;;
22435;SDS011;11385;50.822;4.324;2022-11-03T03:06:16;11.80;;;2.27;;
22435;SDS011;11385;50.822;4.324;2022-11-03T03:08:47;14.65;;;2.47;;
22435;SDS011;11385;50.822;4.324;2022-11-03T03:11:18;13.43;;;2.98;;
22435;SDS011;11385;50.822;4.324;2022-11-03T03:13:49;10.15;;;2.10;;
22435;SDS011;11385;50.822;4.324;2022-11-03T03:16:18;10.28;;;2.72;;
22435;SDS011;11385;50.822;4.324;2022-11-03T03:18:50;11.25;;;2.50;;
22435;SDS011;11385;50.822;4.324;2022-11-03T03:21:22;10.78;;;2.77;;
22435;SDS011;11385;50.822;4.324;2022-11-03T03:23:57;8.48;;;2.60;;
22435;SDS011;11385;50.822;4.324;2022-11-03T03:26:29;21.55;;;8.28;;
22435;SDS011;11385;50.822;4.324;2022-11-03T03:29:01;9.60;;;2.27;;
22435;SDS011;11385;50.822;4.324;2022-11-03T03:33:59;8.10;;;2.55;;
22435;SDS011;11385;50.822;4.324;2022-11-03T03:36:27;8.83;;;2.47;;
22435;SDS011;11385;50.822;4.324;2022-11-03T03:38:56;6.85;;;1.95;;
22435;SDS011;11385;50.822;4.324;2022-11-03T03:41:25;11.25;;;2.22;;
22435;SDS011;11385;50.822;4.324;2022-11-03T03:43:58;11.05;;;2.42;;
22435;SDS011;11385;50.822;4.324;2022-11-03T03:46:28;8.78;;;2.20;;
22435;SDS011;11385;50.822;4.324;2022-11-03T03:48:59;14.55;;;2.20;;
22435;SDS011;11385;50.822;4.324;2022-11-03T03:51:27;12.47;;;2.30;;
22435;SDS011;11385;50.822;4.324;2022-11-03T03:53:56;10.28;;;2.12;;
22435;SDS011;11385;50.822;4.324;2022-11-03T03:56:26;12.13;;;2.47;;
22435;SDS011;11385;50.822;4.324;2022-11-03T03:58:55;10.88;;;2.20;;
22435;SDS011;11385;50.822;4.324;2022-11-03T04:01:22;13.98;;;2.27;;
22435;SDS011;11385;50.822;4.324;2022-11-03T04:03:48;10.75;;;2.77;;
22435;SDS011;11385;50.822;4.324;2022-11-03T04:06:15;11.20;;;2.47;;
22435;SDS011;11385;50.822;4.324;2022-11-03T04:08:41;8.40;;;2.33;;
22435;SDS011;11385;50.822;4.324;2022-11-03T04:11:08;9.10;;;2.30;;
22435;SDS011;11385;50.822;4.324;2022-11-03T04:13:41;9.68;;;2.17;;
22435;SDS011;11385;50.822;4.324;2022-11-03T04:16:13;8.35;;;2.85;;
22435;SDS011;11385;50.822;4.324;2022-11-03T04:18:46;7.45;;;2.20;;
22435;SDS011;11385;50.822;4.324;2022-11-03T04:21:19;11.43;;;2.10;;
22435;SDS011;11385;50.822;4.324;2022-11-03T04:23:52;10.45;;;2.27;;
22435;SDS011;11385;50.822;4.324;2022-11-03T04:26:19;12.93;;;2.72;;
22435;SDS011;11385;50.822;4.324;2022-11-03T04:28:49;11.25;;;2.30;;
22435;SDS011;11385;50.822;4.324;2022-11-03T04:31:18;11.20;;;2.50;;
22435;SDS011;11385;50.822;4.324;2022-11-03T04:33:46;14.23;;;3.77;;
22435;SDS011;11385;50.822;4.324;2022-11-03T04:36:15;14.33;;;2.87;;
22435;SDS011;11385;50.822;4.324;2022-11-03T04:38:46;9.85;;;2.12;;
22435;SDS011;11385;50.822;4.324;2022-11-03T04:41:18;10.65;;;2.65;;
22435;SDS011;11385;50.822;4.324;2022-11-03T04:43:50;12.43;;;2.08;;
22435;SDS011;11385;50.822;4.324;2022-11-03T04:46:22;9.68;;;2.47;;
22435;SDS011;11385;50.822;4.324;2022-11-03T04:48:51;11.48;;;2.45;;
22435;SDS011;11385;50.822;4.324;2022-11-03T04:51:21;11.53;;;2.98;;
22435;SDS011;11385;50.822;4.324;2022-11-03T04:53:53;11.90;;;2.75;;
22435;SDS011;11385;50.822;4.324;2022-11-03T04:56:23;8.68;;;2.22;;
22435;SDS011;11385;50.822;4.324;2022-11-03T04:58:51;10.63;;;2.45;;
22435;SDS011;11385;50.822;4.324;2022-11-03T05:01:19;10.40;;;2.20;;
22435;SDS011;11385;50.822;4.324;2022-11-03T05:03:48;13.98;;;2.90;;
22435;SDS011;11385;50.822;4.324;2022-11-03T05:06:18;10.03;;;2.25;;
22435;SDS011;11385;50.822;4.324;2022-11-03T05:08:50;12.10;;;2.37;;
22435;SDS011;11385;50.822;4.324;2022-11-03T05:11:26;14.87;;;3.62;;
22435;SDS011;11385;50.822;4.324;2022-11-03T05:14:13;8.63;;;2.25;;
22435;SDS011;11385;50.822;4.324;2022-11-03T05:16:47;13.35;;;3.33;;
22435;SDS011;11385;50.822;4.324;2022-11-03T05:19:18;11.00;;;2.17;;
22435;SDS011;11385;50.822;4.324;2022-11-03T05:21:48;12.78;;;2.55;;
22435;SDS011;11385;50.822;4.324;2022-11-03T05:24:18;11.70;;;2.45;;
22435;SDS011;11385;50.822;4.324;2022-11-03T05:26:47;6.95;;;2.17;;
22435;SDS011;11385;50.822;4.324;2022-11-03T05:29:15;11.43;;;2.70;;
22435;SDS011;11385;50.822;4.324;2022-11-03T05:31:45;9.90;;;2.55;;
22435;SDS011;11385;50.822;4.324;2022-11-03T05:34:20;10.88;;;2.67;;
22435;SDS011;11385;50.822;4.324;2022-11-03T05:36:48;10.78;;;3.37;;
22435;SDS011;11385;50.822;4.324;2022-11-03T05:39:24;11.38;;;2.83;;
22435;SDS011;11385;50.822;4.324;2022-11-03T05:41:59;11.08;;;2.33;;
22435;SDS011;11385;50.822;4.324;2022-11-03T05:44:33;8.50;;;2.40;;
22435;SDS011;11385;50.822;4.324;2022-11-03T05:47:11;13.43;;;2.83;;
22435;SDS011;11385;50.822;4.324;2022-11-03T05:49:39;12.28;;;2.98;;
22435;SDS011;11385;50.822;4.324;2022-11-03T05:52:10;13.50;;;2.77;;
22435;SDS011;11385;50.822;4.324;2022-11-03T05:54:38;15.48;;;3.50;;
22435;SDS011;11385;50.822;4.324;2022-11-03T05:57:09;15.63;;;3.08;;
22435;SDS011;11385;50.822;4.324;2022-11-03T05:59:38;13.43;;;2.55;;
22435;SDS011;11385;50.822;4.324;2022-11-03T06:02:07;12.75;;;2.62;;
22435;SDS011;11385;50.822;4.324;2022-11-03T06:04:35;13.63;;;2.70;;
22435;SDS011;11385;50.822;4.324;2022-11-03T06:09:41;16.05;;;2.70;;
22435;SDS011;11385;50.822;4.324;2022-11-03T06:12:09;9.60;;;2.47;;
22435;SDS011;11385;50.822;4.324;2022-11-03T06:14:39;12.85;;;3.12;;
22435;SDS011;11385;50.822;4.324;2022-11-03T06:17:09;10.18;;;2.52;;
22435;SDS011;11385;50.822;4.324;2022-11-03T06:19:42;11.57;;;2.62;;
22435;SDS011;11385;50.822;4.324;2022-11-03T06:22:14;18.67;;;4.00;;
22435;SDS011;11385;50.822;4.324;2022-11-03T06:24:45;14.28;;;3.00;;
22435;SDS011;11385;50.822;4.324;2022-11-03T06:27:13;8.40;;;2.40;;
22435;SDS011;11385;50.822;4.324;2022-11-03T06:29:52;16.30;;;2.67;;
22435;SDS011;11385;50.822;4.324;2022-11-03T06:32:23;12.90;;;3.20;;
22435;SDS011;11385;50.822;4.324;2022-11-03T06:34:52;10.68;;;2.10;;
22435;SDS011;11385;50.822;4.324;2022-11-03T06:42:55;12.00;;;2.85;;
22435;SDS011;11385;50.822;4.324;2022-11-03T06:45:23;15.20;;;2.70;;
22435;SDS011;11385;50.822;4.324;2022-11-03T06:47:51;13.50;;;2.70;;
22435;SDS011;11385;50.822;4.324;2022-11-03T06:50:24;14.18;;;3.20;;
22435;SDS011;11385;50.822;4.324;2022-11-03T06:52:57;13.32;;;3.22;;
22435;SDS011;11385;50.822;4.324;2022-11-03T06:55:28;9.48;;;2.47;;
22435;SDS011;11385;50.822;4.324;2022-11-03T06:57:58;8.28;;;2.27;;
22435;SDS011;11385;50.822;4.324;2022-11-03T07:00:28;7.92;;;2.58;;
22435;SDS011;11385;50.822;4.324;2022-11-03T07:03:00;15.63;;;3.22;;
22435;SDS011;11385;50.822;4.324;2022-11-03T07:05:34;10.28;;;2.72;;
22435;SDS011;11385;50.822;4.324;2022-11-03T07:08:05;12.47;;;2.58;;
22435;SDS011;11385;50.822;4.324;2022-11-03T07:10:34;14.38;;;2.85;;
22435;SDS011;11385;50.822;4.324;2022-11-03T07:13:05;10.45;;;2.37;;
22435;SDS011;11385;50.822;4.324;2022-11-03T07:15:34;15.93;;;2.65;;
22435;SDS011;11385;50.822;4.324;2022-11-03T07:18:03;11.28;;;2.92;;
22435;SDS011;11385;50.822;4.324;2022-11-03T07:20:32;16.60;;;2.87;;
22435;SDS011;11385;50.822;4.324;2022-11-03T07:22:59;8.25;;;2.67;;
22435;SDS011;11385;50.822;4.324;2022-11-03T07:25:27;11.88;;;2.72;;
22435;SDS011;11385;50.822;4.324;2022-11-03T07:27:53;15.30;;;2.85;;
22435;SDS011;11385;50.822;4.324;2022-11-03T07:30:23;12.18;;;2.52;;
22435;SDS011;11385;50.822;4.324;2022-11-03T07:32:56;11.35;;;2.67;;
22435;SDS011;11385;50.822;4.324;2022-11-03T07:35:30;12.47;;;2.62;;
22435;SDS011;11385;50.822;4.324;2022-11-03T07:38:08;14.10;;;2.80;;
22435;SDS011;11385;50.822;4.324;2022-11-03T07:40:36;8.00;;;2.33;;
22435;SDS011;11385;50.822;4.324;2022-11-03T07:43:21;13.98;;;2.67;;
22435;SDS011;11385;50.822;4.324;2022-11-03T07:45:51;10.95;;;2.90;;
22435;SDS011;11385;50.822;4.324;2022-11-03T07:48:21;11.93;;;3.20;;
22435;SDS011;11385;50.822;4.324;2022-11-03T07:50:52;15.15;;;2.92;;
22435;SDS011;11385;50.822;4.324;2022-11-03T07:53:24;11.48;;;2.45;;
22435;SDS011;11385;50.822;4.324;2022-11-03T07:55:59;14.53;;;4.40;;
22435;SDS011;11385;50.822;4.324;2022-11-03T07:58:32;18.62;;;9.95;;
22435;SDS011;11385;50.822;4.324;2022-11-03T08:01:00;14.15;;;2.90;;
22435;SDS011;11385;50.822;4.324;2022-11-03T08:03:36;12.78;;;2.90;;
22435;SDS011;11385;50.822;4.324;2022-11-03T08:06:12;9.70;;;3.30;;
22435;SDS011;11385;50.822;4.324;2022-11-03T08:08:38;18.60;;;9.25;;
22435;SDS011;11385;50.822;4.324;2022-11-03T08:11:05;16.00;;;5.97;;
22435;SDS011;11385;50.822;4.324;2022-11-03T08:13:32;9.93;;;3.30;;
22435;SDS011;11385;50.822;4.324;2022-11-03T08:15:59;13.13;;;3.27;;
22435;SDS011;11385;50.822;4.324;2022-11-03T08:18:25;12.10;;;3.92;;
22435;SDS011;11385;50.822;4.324;2022-11-03T08:20:52;23.18;;;12.40;;
22435;SDS011;11385;50.822;4.324;2022-11-03T08:23:19;14.60;;;3.62;;
22435;SDS011;11385;50.822;4.324;2022-11-03T08:25:46;8.58;;;2.85;;
22435;SDS011;11385;50.822;4.324;2022-11-03T08:28:12;9.18;;;2.20;;
22435;SDS011;11385;50.822;4.324;2022-11-03T08:30:39;8.98;;;2.95;;
22435;SDS011;11385;50.822;4.324;2022-11-03T08:33:06;15.00;;;3.22;;
22435;SDS011;11385;50.822;4.324;2022-11-03T08:35:33;12.65;;;2.90;;
22435;SDS011;11385;50.822;4.324;2022-11-03T08:37:59;8.98;;;2.20;;
22435;SDS011;11385;50.822;4.324;2022-11-03T08:40:26;7.45;;;2.05;;
22435;SDS011;11385;50.822;4.324;2022-11-03T08:42:53;12.25;;;3.08;;
22435;SDS011;11385;50.822;4.324;2022-11-03T08:45:20;66.35;;;9.80;;
22435;SDS011;11385;50.822;4.324;2022-11-03T08:47:47;68.42;;;9.55;;
22435;SDS011;11385;50.822;4.324;2022-11-03T08:50:13;72.82;;;10.95;;
22435;SDS011;11385;50.822;4.324;2022-11-03T08:52:40;104.83;;;16.67;;
22435;SDS011;11385;50.822;4.324;2022-11-03T08:55:07;68.25;;;12.58;;
22435;SDS011;11385;50.822;4.324;2022-11-03T08:57:34;74.12;;;12.68;;
22435;SDS011;11385;50.822;4.324;2022-11-03T09:00:01;29.40;;;5.62;;
22435;SDS011;11385;50.822;4.324;2022-11-03T09:02:29;14.83;;;4.15;;
22435;SDS011;11385;50.822;4.324;2022-11-03T09:04:55;11.57;;;3.12;;
22435;SDS011;11385;50.822;4.324;2022-11-03T09:07:23;8.75;;;2.30;;
22435;SDS011;11385;50.822;4.324;2022-11-03T09:09:49;9.30;;;2.35;;
22435;SDS011;11385;50.822;4.324;2022-11-03T09:12:16;8.85;;;2.42;;
22435;SDS011;11385;50.822;4.324;2022-11-03T09:14:43;7.25;;;2.20;;
22435;SDS011;11385;50.822;4.324;2022-11-03T09:17:10;12.00;;;2.92;;
22435;SDS011;11385;50.822;4.324;2022-11-03T09:19:36;8.75;;;2.52;;
22435;SDS011;11385;50.822;4.324;2022-11-03T09:22:03;19.90;;;3.65;;
22435;SDS011;11385;50.822;4.324;2022-11-03T09:24:30;9.63;;;2.95;;
22435;SDS011;11385;50.822;4.324;2022-11-03T09:26:56;8.68;;;2.62;;
22435;SDS011;11385;50.822;4.324;2022-11-03T09:29:24;11.12;;;3.42;;
22435;SDS011;11385;50.822;4.324;2022-11-03T09:31:51;9.60;;;2.92;;
22435;SDS011;11385;50.822;4.324;2022-11-03T09:34:18;8.53;;;2.65;;
22435;SDS011;11385;50.822;4.324;2022-11-03T09:36:45;11.03;;;3.12;;
22435;SDS011;11385;50.822;4.324;2022-11-03T09:39:11;12.03;;;3.40;;
22435;SDS011;11385;50.822;4.324;2022-11-03T09:41:38;61.35;;;10.50;;
22435;SDS011;11385;50.822;4.324;2022-11-03T09:44:05;86.55;;;12.93;;
22435;SDS011;11385;50.822;4.324;2022-11-03T09:46:32;82.62;;;11.43;;
22435;SDS011;11385;50.822;4.324;2022-11-03T09:48:59;21.23;;;4.45;;
22435;SDS011;11385;50.822;4.324;2022-11-03T09:51:29;19.30;;;4.33;;
22435;SDS011;11385;50.822;4.324;2022-11-03T09:53:57;16.35;;;3.70;;
22435;SDS011;11385;50.822;4.324;2022-11-03T09:56:27;7.47;;;2.17;;
22435;SDS011;11385;50.822;4.324;2022-11-03T09:58:55;9.13;;;2.40;;
22435;SDS011;11385;50.822;4.324;2022-11-03T10:01:22;8.48;;;2.65;;
22435;SDS011;11385;50.822;4.324;2022-11-03T10:03:49;8.45;;;2.00;;
22435;SDS011;11385;50.822;4.324;2022-11-03T10:06:16;10.68;;;2.85;;
22435;SDS011;11385;50.822;4.324;2022-11-03T10:08:43;5.62;;;2.17;;
22435;SDS011;11385;50.822;4.324;2022-11-03T10:11:12;10.53;;;2.98;;
22435;SDS011;11385;50.822;4.324;2022-11-03T10:13:41;10.35;;;2.92;;
22435;SDS011;11385;50.822;4.324;2022-11-03T10:16:14;85.95;;;14.10;;
22435;SDS011;11385;50.822;4.324;2022-11-03T10:18:43;71.33;;;10.35;;
22435;SDS011;11385;50.822;4.324;2022-11-03T10:21:13;75.32;;;10.58;;
22435;SDS011;11385;50.822;4.324;2022-11-03T10:23:40;88.47;;;12.70;;
22435;SDS011;11385;50.822;4.324;2022-11-03T10:26:08;30.90;;;6.37;;
22435;SDS011;11385;50.822;4.324;2022-11-03T10:28:36;22.82;;;4.25;;
22435;SDS011;11385;50.822;4.324;2022-11-03T10:31:05;16.65;;;2.72;;
22435;SDS011;11385;50.822;4.324;2022-11-03T10:33:35;8.80;;;2.65;;
22435;SDS011;11385;50.822;4.324;2022-11-03T10:36:04;6.72;;;2.10;;
22435;SDS011;11385;50.822;4.324;2022-11-03T10:38:38;7.03;;;2.02;;
22435;SDS011;11385;50.822;4.324;2022-11-03T10:41:09;5.72;;;1.98;;
22435;SDS011;11385;50.822;4.324;2022-11-03T10:43:38;5.78;;;2.00;;
22435;SDS011;11385;50.822;4.324;2022-11-03T10:46:10;7.20;;;2.20;;
22435;SDS011;11385;50.822;4.324;2022-11-03T10:48:42;6.67;;;2.20;;
22435;SDS011;11385;50.822;4.324;2022-11-03T10:51:11;9.35;;;2.33;;
22435;SDS011;11385;50.822;4.324;2022-11-03T10:53:38;7.85;;;2.00;;
22435;SDS011;11385;50.822;4.324;2022-11-03T10:56:06;9.03;;;2.15;;
22435;SDS011;11385;50.822;4.324;2022-11-03T10:58:33;5.15;;;1.82;;
22435;SDS011;11385;50.822;4.324;2022-11-03T11:01:02;7.40;;;2.22;;
22435;SDS011;11385;50.822;4.324;2022-11-03T11:03:29;7.42;;;2.00;;
22435;SDS011;11385;50.822;4.324;2022-11-03T11:05:56;8.13;;;2.17;;
22435;SDS011;11385;50.822;4.324;2022-11-03T11:08:23;6.42;;;1.45;;
22435;SDS011;11385;50.822;4.324;2022-11-03T11:10:49;6.15;;;2.02;;
22435;SDS011;11385;50.822;4.324;2022-11-03T11:13:24;7.65;;;1.65;;
22435;SDS011;11385;50.822;4.324;2022-11-03T11:15:58;7.25;;;1.50;;
22435;SDS011;11385;50.822;4.324;2022-11-03T11:18:59;5.85;;;1.90;;
22435;SDS011;11385;50.822;4.324;2022-11-03T11:21:48;5.65;;;1.90;;
22435;SDS011;11385;50.822;4.324;2022-11-03T11:24:12;5.83;;;1.77;;
22435;SDS011;11385;50.822;4.324;2022-11-03T11:26:39;7.50;;;1.85;;
22435;SDS011;11385;50.822;4.324;2022-11-03T11:32:07;8.68;;;2.42;;
22435;SDS011;11385;50.822;4.324;2022-11-03T11:39:57;10.20;;;2.10;;
22435;SDS011;11385;50.822;4.324;2022-11-03T11:42:25;7.58;;;2.00;;
22435;SDS011;11385;50.822;4.324;2022-11-03T11:44:53;5.55;;;2.00;;
22435;SDS011;11385;50.822;4.324;2022-11-03T11:47:30;5.62;;;1.80;;
22435;SDS011;11385;50.822;4.324;2022-11-03T11:50:20;8.53;;;1.57;;
22435;SDS011;11385;50.822;4.324;2022-11-03T11:52:58;5.87;;;1.92;;
22435;SDS011;11385;50.822;4.324;2022-11-03T11:55:31;5.42;;;1.60;;
22435;SDS011;11385;50.822;4.324;2022-11-03T11:58:02;7.28;;;1.87;;
22435;SDS011;11385;50.822;4.324;2022-11-03T12:00:33;4.40;;;1.60;;
22435;SDS011;11385;50.822;4.324;2022-11-03T12:03:01;5.58;;;1.87;;
22435;SDS011;11385;50.822;4.324;2022-11-03T12:05:31;6.78;;;1.70;;
22435;SDS011;11385;50.822;4.324;2022-11-03T12:08:00;6.92;;;1.67;;
22435;SDS011;11385;50.822;4.324;2022-11-03T12:10:29;11.15;;;2.10;;
22435;SDS011;11385;50.822;4.324;2022-11-03T12:12:58;6.40;;;1.80;;
22435;SDS011;11385;50.822;4.324;2022-11-03T12:20:44;10.38;;;2.08;;
22435;SDS011;11385;50.822;4.324;2022-11-03T12:23:30;5.53;;;1.70;;
22435;SDS011;11385;50.822;4.324;2022-11-03T12:25:46;25.30;;;16.57;;
22435;SDS011;11385;50.822;4.324;2022-11-03T12:28:28;9.15;;;2.42;;
22435;SDS011;11385;50.822;4.324;2022-11-03T12:33:11;5.22;;;1.67;;
22435;SDS011;11385;50.822;4.324;2022-11-03T12:35:37;5.40;;;1.72;;
22435;SDS011;11385;50.822;4.324;2022-11-03T12:38:04;5.50;;;1.60;;
22435;SDS011;11385;50.822;4.324;2022-11-03T12:40:31;8.05;;;2.08;;
22435;SDS011;11385;50.822;4.324;2022-11-03T12:42:57;6.50;;;2.20;;
22435;SDS011;11385;50.822;4.324;2022-11-03T12:45:24;4.95;;;1.92;;
22435;SDS011;11385;50.822;4.324;2022-11-03T12:47:51;6.35;;;2.00;;
22435;SDS011;11385;50.822;4.324;2022-11-03T12:50:18;6.67;;;2.20;;
22435;SDS011;11385;50.822;4.324;2022-11-03T12:52:44;9.63;;;2.10;;
22435;SDS011;11385;50.822;4.324;2022-11-03T12:55:11;6.35;;;2.00;;
22435;SDS011;11385;50.822;4.324;2022-11-03T12:57:38;7.20;;;1.80;;
22435;SDS011;11385;50.822;4.324;2022-11-03T13:00:05;9.45;;;2.42;;
22435;SDS011;11385;50.822;4.324;2022-11-03T13:02:33;7.62;;;2.17;;
22435;SDS011;11385;50.822;4.324;2022-11-03T13:05:00;12.88;;;7.58;;
22435;SDS011;11385;50.822;4.324;2022-11-03T13:07:26;6.95;;;3.00;;
22435;SDS011;11385;50.822;4.324;2022-11-03T13:09:53;8.98;;;2.60;;
22435;SDS011;11385;50.822;4.324;2022-11-03T13:12:20;9.75;;;2.55;;
22435;SDS011;11385;50.822;4.324;2022-11-03T13:14:52;9.75;;;2.05;;
22435;SDS011;11385;50.822;4.324;2022-11-03T13:17:19;6.85;;;2.17;;
22435;SDS011;11385;50.822;4.324;2022-11-03T13:19:45;6.28;;;1.75;;
22435;SDS011;11385;50.822;4.324;2022-11-03T13:22:12;6.40;;;2.20;;
22435;SDS011;11385;50.822;4.324;2022-11-03T13:24:38;5.37;;;2.25;;
22435;SDS011;11385;50.822;4.324;2022-11-03T13:27:05;6.97;;;2.30;;
22435;SDS011;11385;50.822;4.324;2022-11-03T13:29:32;6.65;;;2.22;;
22435;SDS011;11385;50.822;4.324;2022-11-03T13:31:58;6.65;;;2.30;;
22435;SDS011;11385;50.822;4.324;2022-11-03T13:34:25;7.58;;;2.10;;
22435;SDS011;11385;50.822;4.324;2022-11-03T13:36:52;5.58;;;2.10;;
22435;SDS011;11385;50.822;4.324;2022-11-03T13:39:18;6.15;;;2.17;;
22435;SDS011;11385;50.822;4.324;2022-11-03T13:41:50;11.00;;;2.65;;
22435;SDS011;11385;50.822;4.324;2022-11-03T13:44:17;5.17;;;2.22;;
22435;SDS011;11385;50.822;4.324;2022-11-03T13:46:43;7.15;;;2.15;;
22435;SDS011;11385;50.822;4.324;2022-11-03T13:49:12;6.00;;;2.20;;
22435;SDS011;11385;50.822;4.324;2022-11-03T13:51:40;5.62;;;2.00;;
22435;SDS011;11385;50.822;4.324;2022-11-03T13:54:07;8.25;;;2.40;;
22435;SDS011;11385;50.822;4.324;2022-11-03T13:56:34;12.70;;;2.47;;
22435;SDS011;11385;50.822;4.324;2022-11-03T13:59:01;4.30;;;2.02;;
22435;SDS011;11385;50.822;4.324;2022-11-03T14:01:27;8.28;;;2.33;;
22435;SDS011;11385;50.822;4.324;2022-11-03T14:03:54;14.55;;;7.80;;
22435;SDS011;11385;50.822;4.324;2022-11-03T14:06:20;7.58;;;3.15;;
22435;SDS011;11385;50.822;4.324;2022-11-03T14:08:48;19.75;;;12.75;;
22435;SDS011;11385;50.822;4.324;2022-11-03T14:11:15;18.20;;;8.08;;
22435;SDS011;11385;50.822;4.324;2022-11-03T14:13:58;21.48;;;15.90;;
22435;SDS011;11385;50.822;4.324;2022-11-03T14:16:25;7.65;;;2.47;;
22435;SDS011;11385;50.822;4.324;2022-11-03T14:18:52;5.50;;;2.08;;
22435;SDS011;11385;50.822;4.324;2022-11-03T14:21:19;8.05;;;2.92;;
22435;SDS011;11385;50.822;4.324;2022-11-03T14:23:47;9.95;;;2.47;;
22435;SDS011;11385;50.822;4.324;2022-11-03T14:26:13;7.28;;;2.50;;
22435;SDS011;11385;50.822;4.324;2022-11-03T14:28:40;9.28;;;2.75;;
22435;SDS011;11385;50.822;4.324;2022-11-03T14:31:08;5.72;;;2.42;;
22435;SDS011;11385;50.822;4.324;2022-11-03T14:33:37;5.92;;;2.02;;
22435;SDS011;11385;50.822;4.324;2022-11-03T14:36:03;4.78;;;2.22;;
22435;SDS011;11385;50.822;4.324;2022-11-03T14:38:30;6.58;;;2.25;;
22435;SDS011;11385;50.822;4.324;2022-11-03T14:40:57;6.65;;;2.10;;
22435;SDS011;11385;50.822;4.324;2022-11-03T14:43:29;6.47;;;2.37;;
22435;SDS011;11385;50.822;4.324;2022-11-03T14:45:55;5.33;;;2.00;;
22435;SDS011;11385;50.822;4.324;2022-11-03T14:48:22;4.62;;;2.15;;
22435;SDS011;11385;50.822;4.324;2022-11-03T14:50:49;5.25;;;2.10;;
22435;SDS011;11385;50.822;4.324;2022-11-03T14:53:16;6.30;;;2.20;;
22435;SDS011;11385;50.822;4.324;2022-11-03T14:55:42;7.08;;;2.27;;
22435;SDS011;11385;50.822;4.324;2022-11-03T14:58:09;6.10;;;2.58;;
22435;SDS011;11385;50.822;4.324;2022-11-03T15:00:36;6.83;;;2.30;;
22435;SDS011;11385;50.822;4.324;2022-11-03T15:03:02;6.87;;;2.15;;
22435;SDS011;11385;50.822;4.324;2022-11-03T15:05:29;8.00;;;2.72;;
22435;SDS011;11385;50.822;4.324;2022-11-03T15:08:01;5.50;;;1.90;;
22435;SDS011;11385;50.822;4.324;2022-11-03T15:10:28;8.78;;;4.72;;
22435;SDS011;11385;50.822;4.324;2022-11-03T15:12:54;41.23;;;33.25;;
22435;SDS011;11385;50.822;4.324;2022-11-03T15:15:21;16.42;;;12.28;;
22435;SDS011;11385;50.822;4.324;2022-11-03T15:17:48;6.15;;;2.90;;
22435;SDS011;11385;50.822;4.324;2022-11-03T15:20:14;8.00;;;2.90;;
22435;SDS011;11385;50.822;4.324;2022-11-03T15:22:41;5.42;;;2.62;;
22435;SDS011;11385;50.822;4.324;2022-11-03T15:25:08;5.37;;;2.98;;
22435;SDS011;11385;50.822;4.324;2022-11-03T15:27:34;8.10;;;3.10;;
22435;SDS011;11385;50.822;4.324;2022-11-03T15:30:02;6.65;;;2.50;;